sensor_id;sensor_type;location;lat;lon;timestamp;temperature;humidity
33841;DHT22;20142;28.494;-16.312;2023-09-19T00:01:14;20.80;82.70
33841;DHT22;20142;28.494;-16.312;2023-09-19T00:06:16;20.80;83.00
33841;DHT22;20142;28.494;-16.312;2023-09-19T00:11:18;20.70;82.90
33841;DHT22;20142;28.494;-16.312;2023-09-19T00:16:19;20.70;82.70
33841;DHT22;20142;28.494;-16.312;2023-09-19T00:21:21;20.70;82.70
33841;DHT22;20142;28.494;-16.312;2023-09-19T00:26:23;20.60;82.70
33841;DHT22;20142;28.494;-16.312;2023-09-19T00:31:25;20.60;82.60
33841;DHT22;20142;28.494;-16.312;2023-09-19T00:36:27;20.60;82.60
33841;DHT22;20142;28.494;-16.312;2023-09-19T00:41:30;20.50;82.60
33841;DHT22;20142;28.494;-16.312;2023-09-19T00:46:32;20.50;82.70
33841;DHT22;20142;28.494;-16.312;2023-09-19T00:51:34;20.40;82.30
33841;DHT22;20142;28.494;-16.312;2023-09-19T00:56:37;20.30;82.40
33841;DHT22;20142;28.494;-16.312;2023-09-19T01:01:41;20.30;82.40
33841;DHT22;20142;28.494;-16.312;2023-09-19T01:06:43;20.30;82.60
33841;DHT22;20142;28.494;-16.312;2023-09-19T01:11:48;20.20;82.70
33841;DHT22;20142;28.494;-16.312;2023-09-19T01:17:09;20.30;83.20
33841;DHT22;20142;28.494;-16.312;2023-09-19T01:22:59;20.20;82.70
33841;DHT22;20142;28.494;-16.312;2023-09-19T01:34:09;20.20;83.00
33841;DHT22;20142;28.494;-16.312;2023-09-19T01:39:11;20.20;82.70
33841;DHT22;20142;28.494;-16.312;2023-09-19T01:44:34;20.20;82.70
33841;DHT22;20142;28.494;-16.312;2023-09-19T01:49:56;20.20;82.80
33841;DHT22;20142;28.494;-16.312;2023-09-19T01:55:08;20.20;83.00
33841;DHT22;20142;28.494;-16.312;2023-09-19T02:00:12;20.30;83.20
33841;DHT22;20142;28.494;-16.312;2023-09-19T02:05:23;20.40;83.30
33841;DHT22;20142;28.494;-16.312;2023-09-19T02:10:25;20.50;83.30
33841;DHT22;20142;28.494;-16.312;2023-09-19T02:15:27;20.50;83.60
33841;DHT22;20142;28.494;-16.312;2023-09-19T02:25:40;20.70;83.80
33841;DHT22;20142;28.494;-16.312;2023-09-19T02:30:42;20.80;83.70
33841;DHT22;20142;28.494;-16.312;2023-09-19T02:35:43;20.80;83.60
33841;DHT22;20142;28.494;-16.312;2023-09-19T02:40:46;20.90;83.50
33841;DHT22;20142;28.494;-16.312;2023-09-19T02:45:48;20.80;83.40
33841;DHT22;20142;28.494;-16.312;2023-09-19T02:50:54;20.90;82.90
33841;DHT22;20142;28.494;-16.312;2023-09-19T02:55:56;21.00;82.80
33841;DHT22;20142;28.494;-16.312;2023-09-19T03:00:58;21.00;82.90
33841;DHT22;20142;28.494;-16.312;2023-09-19T03:06:00;20.90;82.80
33841;DHT22;20142;28.494;-16.312;2023-09-19T03:11:08;20.90;82.70
33841;DHT22;20142;28.494;-16.312;2023-09-19T03:16:12;20.70;83.30
33841;DHT22;20142;28.494;-16.312;2023-09-19T03:21:16;20.70;83.90
33841;DHT22;20142;28.494;-16.312;2023-09-19T03:26:18;20.70;84.00
33841;DHT22;20142;28.494;-16.312;2023-09-19T03:31:20;20.50;84.50
33841;DHT22;20142;28.494;-16.312;2023-09-19T03:36:22;20.50;84.60
33841;DHT22;20142;28.494;-16.312;2023-09-19T03:41:23;20.30;84.60
33841;DHT22;20142;28.494;-16.312;2023-09-19T03:46:25;20.20;84.80
33841;DHT22;20142;28.494;-16.312;2023-09-19T03:51:28;20.20;85.00
33841;DHT22;20142;28.494;-16.312;2023-09-19T03:56:29;20.20;85.00
33841;DHT22;20142;28.494;-16.312;2023-09-19T04:01:32;20.10;84.80
33841;DHT22;20142;28.494;-16.312;2023-09-19T04:06:35;20.00;84.90
33841;DHT22;20142;28.494;-16.312;2023-09-19T04:11:37;19.90;85.10
33841;DHT22;20142;28.494;-16.312;2023-09-19T04:16:38;19.90;85.40
33841;DHT22;20142;28.494;-16.312;2023-09-19T04:21:40;19.80;85.20
33841;DHT22;20142;28.494;-16.312;2023-09-19T04:26:42;19.80;85.30
33841;DHT22;20142;28.494;-16.312;2023-09-19T04:31:44;19.80;85.20
33841;DHT22;20142;28.494;-16.312;2023-09-19T04:36:47;19.70;85.50
33841;DHT22;20142;28.494;-16.312;2023-09-19T04:41:48;19.70;85.60
33841;DHT22;20142;28.494;-16.312;2023-09-19T04:46:50;19.70;85.70
33841;DHT22;20142;28.494;-16.312;2023-09-19T04:51:52;19.90;86.00
33841;DHT22;20142;28.494;-16.312;2023-09-19T04:56:54;20.00;85.90
33841;DHT22;20142;28.494;-16.312;2023-09-19T05:01:56;19.80;85.80
33841;DHT22;20142;28.494;-16.312;2023-09-19T05:06:58;19.90;85.70
33841;DHT22;20142;28.494;-16.312;2023-09-19T05:12:00;19.80;86.00
33841;DHT22;20142;28.494;-16.312;2023-09-19T05:17:02;19.80;86.00
33841;DHT22;20142;28.494;-16.312;2023-09-19T05:22:05;19.80;86.00
33841;DHT22;20142;28.494;-16.312;2023-09-19T05:27:08;19.70;85.70
33841;DHT22;20142;28.494;-16.312;2023-09-19T05:32:10;19.60;85.80
33841;DHT22;20142;28.494;-16.312;2023-09-19T05:37:13;19.60;86.00
33841;DHT22;20142;28.494;-16.312;2023-09-19T05:42:17;19.60;86.10
33841;DHT22;20142;28.494;-16.312;2023-09-19T05:47:19;19.60;86.00
33841;DHT22;20142;28.494;-16.312;2023-09-19T05:52:21;19.60;86.10
33841;DHT22;20142;28.494;-16.312;2023-09-19T05:57:23;19.60;86.20
33841;DHT22;20142;28.494;-16.312;2023-09-19T06:02:26;19.70;86.10
33841;DHT22;20142;28.494;-16.312;2023-09-19T06:07:30;19.70;86.20
33841;DHT22;20142;28.494;-16.312;2023-09-19T06:12:43;19.70;86.10
33841;DHT22;20142;28.494;-16.312;2023-09-19T06:17:51;19.70;86.10
33841;DHT22;20142;28.494;-16.312;2023-09-19T06:22:56;19.60;86.10
33841;DHT22;20142;28.494;-16.312;2023-09-19T06:27:58;19.60;86.00
33841;DHT22;20142;28.494;-16.312;2023-09-19T06:33:00;19.50;85.90
33841;DHT22;20142;28.494;-16.312;2023-09-19T06:38:03;19.40;85.90
33841;DHT22;20142;28.494;-16.312;2023-09-19T06:43:05;19.50;86.20
33841;DHT22;20142;28.494;-16.312;2023-09-19T06:48:07;19.70;86.20
33841;DHT22;20142;28.494;-16.312;2023-09-19T06:53:11;19.70;86.10
33841;DHT22;20142;28.494;-16.312;2023-09-19T06:58:12;19.80;86.30
33841;DHT22;20142;28.494;-16.312;2023-09-19T07:03:14;19.80;86.10
33841;DHT22;20142;28.494;-16.312;2023-09-19T07:08:17;19.70;86.00
33841;DHT22;20142;28.494;-16.312;2023-09-19T07:13:21;19.80;85.70
33841;DHT22;20142;28.494;-16.312;2023-09-19T07:18:22;19.80;85.70
33841;DHT22;20142;28.494;-16.312;2023-09-19T07:23:24;19.90;86.00
33841;DHT22;20142;28.494;-16.312;2023-09-19T07:28:27;20.00;86.10
33841;DHT22;20142;28.494;-16.312;2023-09-19T07:33:29;20.00;86.00
33841;DHT22;20142;28.494;-16.312;2023-09-19T07:38:31;20.10;86.40
33841;DHT22;20142;28.494;-16.312;2023-09-19T07:43:34;20.10;86.60
33841;DHT22;20142;28.494;-16.312;2023-09-19T07:48:42;20.40;86.60
33841;DHT22;20142;28.494;-16.312;2023-09-19T07:53:48;20.50;86.40
33841;DHT22;20142;28.494;-16.312;2023-09-19T07:58:50;20.60;86.20
33841;DHT22;20142;28.494;-16.312;2023-09-19T08:03:53;20.50;85.90
33841;DHT22;20142;28.494;-16.312;2023-09-19T08:08:54;20.40;85.90
33841;DHT22;20142;28.494;-16.312;2023-09-19T08:13:58;20.40;85.60
33841;DHT22;20142;28.494;-16.312;2023-09-19T08:19:00;20.40;85.40
33841;DHT22;20142;28.494;-16.312;2023-09-19T08:24:02;20.50;85.30
33841;DHT22;20142;28.494;-16.312;2023-09-19T08:29:05;20.60;84.90
33841;DHT22;20142;28.494;-16.312;2023-09-19T08:34:14;20.70;85.20
33841;DHT22;20142;28.494;-16.312;2023-09-19T08:39:15;20.80;84.50
33841;DHT22;20142;28.494;-16.312;2023-09-19T08:44:18;20.90;84.30
33841;DHT22;20142;28.494;-16.312;2023-09-19T08:49:27;21.20;83.70
33841;DHT22;20142;28.494;-16.312;2023-09-19T08:54:38;21.80;83.40
33841;DHT22;20142;28.494;-16.312;2023-09-19T08:59:41;22.50;82.90
33841;DHT22;20142;28.494;-16.312;2023-09-19T09:04:45;22.90;82.10
33841;DHT22;20142;28.494;-16.312;2023-09-19T09:09:48;23.20;82.00
33841;DHT22;20142;28.494;-16.312;2023-09-19T09:14:50;23.30;81.50
33841;DHT22;20142;28.494;-16.312;2023-09-19T09:19:53;23.10;80.40
33841;DHT22;20142;28.494;-16.312;2023-09-19T09:24:57;23.10;79.50
33841;DHT22;20142;28.494;-16.312;2023-09-19T09:30:07;23.00;80.00
33841;DHT22;20142;28.494;-16.312;2023-09-19T09:35:10;23.30;79.40
33841;DHT22;20142;28.494;-16.312;2023-09-19T09:40:12;23.30;78.90
33841;DHT22;20142;28.494;-16.312;2023-09-19T09:45:18;23.20;77.90
33841;DHT22;20142;28.494;-16.312;2023-09-19T09:50:31;23.20;78.60
33841;DHT22;20142;28.494;-16.312;2023-09-19T09:55:59;23.20;77.90
33841;DHT22;20142;28.494;-16.312;2023-09-19T10:01:07;23.10;78.10
33841;DHT22;20142;28.494;-16.312;2023-09-19T10:06:12;22.90;78.40
33841;DHT22;20142;28.494;-16.312;2023-09-19T10:11:24;23.20;78.80
33841;DHT22;20142;28.494;-16.312;2023-09-19T10:16:31;23.30;77.90
33841;DHT22;20142;28.494;-16.312;2023-09-19T10:21:35;23.10;78.20
33841;DHT22;20142;28.494;-16.312;2023-09-19T10:26:38;23.40;78.10
33841;DHT22;20142;28.494;-16.312;2023-09-19T10:31:42;23.60;77.30
33841;DHT22;20142;28.494;-16.312;2023-09-19T10:36:48;23.50;78.30
33841;DHT22;20142;28.494;-16.312;2023-09-19T10:41:54;23.40;77.60
33841;DHT22;20142;28.494;-16.312;2023-09-19T10:47:00;23.80;77.70
33841;DHT22;20142;28.494;-16.312;2023-09-19T10:52:02;24.10;77.20
33841;DHT22;20142;28.494;-16.312;2023-09-19T10:57:09;24.20;77.10
33841;DHT22;20142;28.494;-16.312;2023-09-19T11:02:18;24.50;76.30
33841;DHT22;20142;28.494;-16.312;2023-09-19T11:07:19;25.20;76.40
33841;DHT22;20142;28.494;-16.312;2023-09-19T11:17:34;24.90;75.40
33841;DHT22;20142;28.494;-16.312;2023-09-19T11:33:20;25.10;75.60
33841;DHT22;20142;28.494;-16.312;2023-09-19T11:43:46;25.00;76.30
33841;DHT22;20142;28.494;-16.312;2023-09-19T11:48:52;25.20;75.90
33841;DHT22;20142;28.494;-16.312;2023-09-19T11:53:55;25.20;76.20
33841;DHT22;20142;28.494;-16.312;2023-09-19T11:59:00;25.40;75.60
33841;DHT22;20142;28.494;-16.312;2023-09-19T12:04:03;25.60;75.00
33841;DHT22;20142;28.494;-16.312;2023-09-19T12:09:05;25.70;74.60
33841;DHT22;20142;28.494;-16.312;2023-09-19T12:14:11;25.40;74.40
33841;DHT22;20142;28.494;-16.312;2023-09-19T12:19:23;25.10;73.70
33841;DHT22;20142;28.494;-16.312;2023-09-19T12:24:27;25.00;73.80
33841;DHT22;20142;28.494;-16.312;2023-09-19T12:29:52;24.80;73.00
33841;DHT22;20142;28.494;-16.312;2023-09-19T12:34:56;24.80;73.60
33841;DHT22;20142;28.494;-16.312;2023-09-19T12:40:08;24.70;72.60
33841;DHT22;20142;28.494;-16.312;2023-09-19T12:45:18;24.60;72.70
33841;DHT22;20142;28.494;-16.312;2023-09-19T12:50:20;24.60;72.20
33841;DHT22;20142;28.494;-16.312;2023-09-19T12:55:30;24.70;72.70
33841;DHT22;20142;28.494;-16.312;2023-09-19T13:00:38;24.70;72.30
33841;DHT22;20142;28.494;-16.312;2023-09-19T13:05:49;24.90;72.40
33841;DHT22;20142;28.494;-16.312;2023-09-19T13:11:14;24.90;71.50
33841;DHT22;20142;28.494;-16.312;2023-09-19T13:16:21;25.10;72.30
33841;DHT22;20142;28.494;-16.312;2023-09-19T13:21:35;25.30;71.60
33841;DHT22;20142;28.494;-16.312;2023-09-19T13:26:46;25.40;71.10
33841;DHT22;20142;28.494;-16.312;2023-09-19T13:31:51;25.40;70.50
33841;DHT22;20142;28.494;-16.312;2023-09-19T13:36:54;25.70;70.30
33841;DHT22;20142;28.494;-16.312;2023-09-19T13:41:55;26.10;70.10
33841;DHT22;20142;28.494;-16.312;2023-09-19T13:46:57;26.40;68.40
33841;DHT22;20142;28.494;-16.312;2023-09-19T13:51:59;26.70;68.50
33841;DHT22;20142;28.494;-16.312;2023-09-19T13:57:02;26.60;68.50
33841;DHT22;20142;28.494;-16.312;2023-09-19T14:02:06;26.40;68.60
33841;DHT22;20142;28.494;-16.312;2023-09-19T14:07:08;26.60;67.40
33841;DHT22;20142;28.494;-16.312;2023-09-19T14:12:12;26.60;68.30
33841;DHT22;20142;28.494;-16.312;2023-09-19T14:17:14;26.80;67.60
33841;DHT22;20142;28.494;-16.312;2023-09-19T14:22:16;27.10;67.50
33841;DHT22;20142;28.494;-16.312;2023-09-19T14:27:18;28.00;65.10
33841;DHT22;20142;28.494;-16.312;2023-09-19T14:32:20;30.20;61.20
33841;DHT22;20142;28.494;-16.312;2023-09-19T14:37:22;31.50;58.80
33841;DHT22;20142;28.494;-16.312;2023-09-19T14:42:23;33.30;56.60
33841;DHT22;20142;28.494;-16.312;2023-09-19T14:47:25;31.70;57.50
33841;DHT22;20142;28.494;-16.312;2023-09-19T14:52:28;29.30;60.70
33841;DHT22;20142;28.494;-16.312;2023-09-19T14:57:30;30.30;60.70
33841;DHT22;20142;28.494;-16.312;2023-09-19T15:02:33;34.30;56.90
33841;DHT22;20142;28.494;-16.312;2023-09-19T15:07:37;34.60;53.40
33841;DHT22;20142;28.494;-16.312;2023-09-19T15:12:40;34.60;54.70
33841;DHT22;20142;28.494;-16.312;2023-09-19T15:17:41;34.60;52.50
33841;DHT22;20142;28.494;-16.312;2023-09-19T15:22:43;36.60;51.40
33841;DHT22;20142;28.494;-16.312;2023-09-19T15:27:45;35.80;51.70
33841;DHT22;20142;28.494;-16.312;2023-09-19T15:32:47;34.00;52.00
33841;DHT22;20142;28.494;-16.312;2023-09-19T15:37:50;35.30;50.20
33841;DHT22;20142;28.494;-16.312;2023-09-19T15:42:56;38.20;48.30
33841;DHT22;20142;28.494;-16.312;2023-09-19T15:47:58;39.90;48.20
33841;DHT22;20142;28.494;-16.312;2023-09-19T15:53:00;35.90;48.10
33841;DHT22;20142;28.494;-16.312;2023-09-19T15:58:02;31.40;52.20
33841;DHT22;20142;28.494;-16.312;2023-09-19T16:03:07;35.30;49.90
33841;DHT22;20142;28.494;-16.312;2023-09-19T16:08:09;32.80;50.30
33841;DHT22;20142;28.494;-16.312;2023-09-19T16:13:11;31.10;53.00
33841;DHT22;20142;28.494;-16.312;2023-09-19T16:18:13;34.00;51.90
33841;DHT22;20142;28.494;-16.312;2023-09-19T16:23:15;33.60;50.50
33841;DHT22;20142;28.494;-16.312;2023-09-19T16:28:17;33.40;52.80
33841;DHT22;20142;28.494;-16.312;2023-09-19T16:33:19;35.30;49.40
33841;DHT22;20142;28.494;-16.312;2023-09-19T16:38:21;32.50;50.70
33841;DHT22;20142;28.494;-16.312;2023-09-19T16:43:25;30.50;53.80
33841;DHT22;20142;28.494;-16.312;2023-09-19T16:48:28;29.80;54.90
33841;DHT22;20142;28.494;-16.312;2023-09-19T16:53:33;29.50;55.20
33841;DHT22;20142;28.494;-16.312;2023-09-19T16:58:36;28.60;56.60
33841;DHT22;20142;28.494;-16.312;2023-09-19T17:03:40;28.20;56.50
33841;DHT22;20142;28.494;-16.312;2023-09-19T17:08:43;26.70;59.40
33841;DHT22;20142;28.494;-16.312;2023-09-19T17:13:50;27.50;60.50
33841;DHT22;20142;28.494;-16.312;2023-09-19T17:18:55;27.20;61.50
33841;DHT22;20142;28.494;-16.312;2023-09-19T17:23:57;29.30;59.70
33841;DHT22;20142;28.494;-16.312;2023-09-19T17:28:59;28.40;60.80
33841;DHT22;20142;28.494;-16.312;2023-09-19T17:34:01;28.90;60.60
33841;DHT22;20142;28.494;-16.312;2023-09-19T17:39:03;29.70;58.80
33841;DHT22;20142;28.494;-16.312;2023-09-19T17:44:05;32.80;56.70
33841;DHT22;20142;28.494;-16.312;2023-09-19T17:49:07;33.60;53.60
33841;DHT22;20142;28.494;-16.312;2023-09-19T17:54:09;34.30;52.80
33841;DHT22;20142;28.494;-16.312;2023-09-19T17:59:11;35.20;51.60
33841;DHT22;20142;28.494;-16.312;2023-09-19T18:04:14;34.80;50.50
33841;DHT22;20142;28.494;-16.312;2023-09-19T18:09:16;34.60;50.40
33841;DHT22;20142;28.494;-16.312;2023-09-19T18:14:19;34.90;50.70
33841;DHT22;20142;28.494;-16.312;2023-09-19T18:19:21;31.40;52.80
33841;DHT22;20142;28.494;-16.312;2023-09-19T18:24:23;28.80;56.40
33841;DHT22;20142;28.494;-16.312;2023-09-19T18:29:25;27.20;58.80
33841;DHT22;20142;28.494;-16.312;2023-09-19T18:34:27;26.70;60.10
33841;DHT22;20142;28.494;-16.312;2023-09-19T18:39:29;25.70;63.00
33841;DHT22;20142;28.494;-16.312;2023-09-19T18:44:31;25.00;64.30
33841;DHT22;20142;28.494;-16.312;2023-09-19T18:49:33;24.40;65.80
33841;DHT22;20142;28.494;-16.312;2023-09-19T18:54:35;23.90;67.30
33841;DHT22;20142;28.494;-16.312;2023-09-19T18:59:37;23.50;69.40
33841;DHT22;20142;28.494;-16.312;2023-09-19T19:04:39;23.60;70.20
33841;DHT22;20142;28.494;-16.312;2023-09-19T19:09:42;23.30;70.90
33841;DHT22;20142;28.494;-16.312;2023-09-19T19:14:45;23.00;71.90
33841;DHT22;20142;28.494;-16.312;2023-09-19T19:19:47;22.90;73.00
33841;DHT22;20142;28.494;-16.312;2023-09-19T19:24:51;22.70;73.50
33841;DHT22;20142;28.494;-16.312;2023-09-19T19:29:53;22.60;74.30
33841;DHT22;20142;28.494;-16.312;2023-09-19T19:34:55;22.30;75.00
33841;DHT22;20142;28.494;-16.312;2023-09-19T19:39:57;22.20;75.50
33841;DHT22;20142;28.494;-16.312;2023-09-19T19:44:58;22.00;76.00
33841;DHT22;20142;28.494;-16.312;2023-09-19T19:50:00;21.80;76.00
33841;DHT22;20142;28.494;-16.312;2023-09-19T19:55:02;21.60;76.80
33841;DHT22;20142;28.494;-16.312;2023-09-19T20:00:05;21.60;76.80
33841;DHT22;20142;28.494;-16.312;2023-09-19T20:05:08;21.60;77.10
33841;DHT22;20142;28.494;-16.312;2023-09-19T20:10:12;21.60;77.30
33841;DHT22;20142;28.494;-16.312;2023-09-19T20:15:17;21.30;77.80
33841;DHT22;20142;28.494;-16.312;2023-09-19T20:20:19;21.30;78.60
33841;DHT22;20142;28.494;-16.312;2023-09-19T20:25:23;21.30;78.90
33841;DHT22;20142;28.494;-16.312;2023-09-19T20:30:29;21.50;79.10
33841;DHT22;20142;28.494;-16.312;2023-09-19T20:35:35;21.30;79.60
33841;DHT22;20142;28.494;-16.312;2023-09-19T20:40:40;21.30;79.80
33841;DHT22;20142;28.494;-16.312;2023-09-19T20:45:44;21.40;80.10
33841;DHT22;20142;28.494;-16.312;2023-09-19T20:50:46;21.60;80.40
33841;DHT22;20142;28.494;-16.312;2023-09-19T20:55:48;21.70;80.50
33841;DHT22;20142;28.494;-16.312;2023-09-19T21:00:51;21.60;80.80
33841;DHT22;20142;28.494;-16.312;2023-09-19T21:06:06;21.40;80.80
33841;DHT22;20142;28.494;-16.312;2023-09-19T21:11:11;21.30;81.40
33841;DHT22;20142;28.494;-16.312;2023-09-19T21:16:19;21.20;81.60
33841;DHT22;20142;28.494;-16.312;2023-09-19T21:21:22;21.10;81.80
33841;DHT22;20142;28.494;-16.312;2023-09-19T21:26:24;21.00;82.30
33841;DHT22;20142;28.494;-16.312;2023-09-19T21:31:26;20.90;82.40
33841;DHT22;20142;28.494;-16.312;2023-09-19T21:36:27;21.00;82.70
33841;DHT22;20142;28.494;-16.312;2023-09-19T21:41:34;21.00;82.90
33841;DHT22;20142;28.494;-16.312;2023-09-19T21:46:37;20.90;83.20
33841;DHT22;20142;28.494;-16.312;2023-09-19T21:51:40;20.80;83.80
33841;DHT22;20142;28.494;-16.312;2023-09-19T21:56:42;20.90;83.70
33841;DHT22;20142;28.494;-16.312;2023-09-19T22:01:43;20.80;84.20
33841;DHT22;20142;28.494;-16.312;2023-09-19T22:06:45;20.70;84.20
33841;DHT22;20142;28.494;-16.312;2023-09-19T22:11:48;20.60;84.50
33841;DHT22;20142;28.494;-16.312;2023-09-19T22:16:52;20.60;84.60
33841;DHT22;20142;28.494;-16.312;2023-09-19T22:21:54;20.60;84.80
33841;DHT22;20142;28.494;-16.312;2023-09-19T22:26:55;20.60;84.80
33841;DHT22;20142;28.494;-16.312;2023-09-19T22:31:57;20.50;84.60
33841;DHT22;20142;28.494;-16.312;2023-09-19T22:36:59;20.50;84.20
33841;DHT22;20142;28.494;-16.312;2023-09-19T22:42:02;20.40;84.50
33841;DHT22;20142;28.494;-16.312;2023-09-19T22:47:12;20.40;84.40
33841;DHT22;20142;28.494;-16.312;2023-09-19T22:52:14;20.30;84.40
33841;DHT22;20142;28.494;-16.312;2023-09-19T22:57:18;20.40;84.50
33841;DHT22;20142;28.494;-16.312;2023-09-19T23:02:19;20.30;84.50
33841;DHT22;20142;28.494;-16.312;2023-09-19T23:07:23;20.20;85.00
33841;DHT22;20142;28.494;-16.312;2023-09-19T23:12:26;20.40;84.70
33841;DHT22;20142;28.494;-16.312;2023-09-19T23:17:28;20.30;85.00
33841;DHT22;20142;28.494;-16.312;2023-09-19T23:22:32;20.30;85.00
33841;DHT22;20142;28.494;-16.312;2023-09-19T23:27:36;20.30;85.10
33841;DHT22;20142;28.494;-16.312;2023-09-19T23:32:38;20.30;85.40
33841;DHT22;20142;28.494;-16.312;2023-09-19T23:37:40;20.30;85.40
33841;DHT22;20142;28.494;-16.312;2023-09-19T23:42:42;20.40;85.70
33841;DHT22;20142;28.494;-16.312;2023-09-19T23:47:44;20.30;85.60
33841;DHT22;20142;28.494;-16.312;2023-09-19T23:52:47;20.30;85.70
33841;DHT22;20142;28.494;-16.312;2023-09-19T23:57:49;20.30;85.30
